Time;durP1;ratioP1;P1;durP2;ratioP2;P2;SDS_P1;SDS_P2;PMS_P1;PMS_P2;Temp;Humidity;BMP_temperature;BMP_pressure;BME280_temperature;BME280_humidity;BME280_pressure;Samples;Min_cycle;Max_cycle;Signal;HPM_P1;HPM_P2
2022/08/23 00:02:08;;;;;;;13.60;8.40;;;17.50;99.90;;;;;;5001989;28;20029;-86
2022/08/23 00:04:40;;;;;;;10.50;7.70;;;17.50;99.90;;;;;;5000426;28;20143;-86
2022/08/23 00:07:15;;;;;;;10.73;6.88;;;17.40;99.90;;;;;;5012902;28;20049;-86
2022/08/23 00:09:45;;;;;;;12.27;7.65;;;17.40;99.90;;;;;;4995885;28;20131;-86
2022/08/23 00:12:18;;;;;;;14.85;7.82;;;17.30;99.90;;;;;;5029317;28;20158;-86
2022/08/23 00:14:49;;;;;;;12.07;8.48;;;17.30;99.90;;;;;;4996604;28;20041;-86
2022/08/23 00:17:16;;;;;;;15.23;8.35;;;17.30;99.90;;;;;;4981868;28;20055;-86
2022/08/23 00:19:47;;;;;;;15.90;8.30;;;17.30;99.90;;;;;;4999694;28;20573;-86
2022/08/23 00:22:14;;;;;;;12.02;8.15;;;17.30;99.90;;;;;;4967467;28;20041;-86
2022/08/23 00:24:48;;;;;;;12.88;7.57;;;17.20;99.90;;;;;;4980899;28;20120;-86
2022/08/23 00:27:16;;;;;;;9.77;7.80;;;17.20;99.90;;;;;;5016515;28;20401;-86
2022/08/23 00:29:46;;;;;;;11.63;8.52;;;17.20;99.90;;;;;;5012941;28;20061;-86
2022/08/23 00:32:16;;;;;;;10.73;8.88;;;17.20;99.90;;;;;;5032294;28;20795;-86
2022/08/23 00:34:42;;;;;;;14.57;9.55;;;17.20;99.90;;;;;;5018266;28;20049;-86
2022/08/23 00:37:14;;;;;;;14.73;8.73;;;17.10;99.90;;;;;;5015524;28;20165;-86
2022/08/23 00:39:43;;;;;;;12.50;9.55;;;17.10;99.90;;;;;;4980031;28;20046;-86
2022/08/23 00:48:01;;;;;;;12.27;9.27;;;17.00;99.90;;;;;;5028337;28;20055;-86
2022/08/23 00:50:51;;;;;;;13.27;10.43;;;17.00;99.90;;;;;;4985548;28;20404;-86
2022/08/23 00:53:26;;;;;;;14.03;10.13;;;16.90;99.90;;;;;;5041174;28;20041;-86
2022/08/23 00:55:57;;;;;;;16.45;10.93;;;16.90;99.90;;;;;;5002626;28;20396;-86
2022/08/23 00:58:25;;;;;;;12.13;10.03;;;16.90;99.90;;;;;;5014139;28;20044;-86
2022/08/23 01:00:53;;;;;;;13.60;10.23;;;16.90;99.90;;;;;;4997841;28;20300;-86
2022/08/23 01:03:24;;;;;;;13.45;11.15;;;16.90;99.90;;;;;;4965510;28;20101;-86
2022/08/23 01:06:20;;;;;;;17.00;10.95;;;16.80;99.90;;;;;;5000787;28;20446;-86
2022/08/23 01:08:55;;;;;;;16.48;11.20;;;16.80;99.90;;;;;;4992652;28;20049;-85
2022/08/23 01:11:38;;;;;;;16.65;10.88;;;16.80;99.90;;;;;;5002616;28;20048;-86
2022/08/23 01:14:15;;;;;;;13.18;11.18;;;16.80;99.90;;;;;;4999462;28;20072;-86
2022/08/23 01:17:09;;;;;;;13.50;11.07;;;16.80;99.90;;;;;;5017886;28;20036;-86
2022/08/23 01:19:41;;;;;;;13.30;10.25;;;16.80;99.90;;;;;;5029437;28;20100;-86
2022/08/23 01:22:24;;;;;;;;;;;16.80;99.90;;;;;;5026471;28;20087;-86
2022/08/23 01:24:51;;;;;;;17.42;10.93;;;16.70;99.90;;;;;;5029697;28;19916;-86
2022/08/23 01:27:18;;;;;;;13.95;12.40;;;16.70;99.90;;;;;;5008545;28;20051;-86
2022/08/23 01:29:46;;;;;;;15.90;12.13;;;16.70;99.90;;;;;;5008804;28;20047;-87
2022/08/23 01:32:15;;;;;;;14.60;11.68;;;16.70;99.90;;;;;;5004929;28;20145;-86
2022/08/23 01:34:41;;;;;;;14.43;11.68;;;16.60;99.90;;;;;;5016704;28;20044;-86
2022/08/23 01:37:08;;;;;;;13.23;11.88;;;16.60;99.90;;;;;;4964087;28;20118;-86
2022/08/23 01:39:37;;;;;;;13.38;12.00;;;16.60;99.90;;;;;;5019972;28;20040;-86
2022/08/23 01:42:06;;;;;;;14.88;11.88;;;16.60;99.90;;;;;;5001509;28;20044;-87
2022/08/23 01:44:36;;;;;;;13.80;12.38;;;16.60;99.90;;;;;;4985407;28;20028;-86
2022/08/23 01:47:04;;;;;;;14.57;12.00;;;16.60;99.90;;;;;;5016974;28;20113;-87
2022/08/23 01:49:33;;;;;;;14.77;12.00;;;16.60;99.90;;;;;;4999801;28;20115;-87
2022/08/23 01:51:59;;;;;;;16.58;12.18;;;16.50;99.90;;;;;;5045460;28;20040;-87
2022/08/23 01:54:26;;;;;;;15.32;13.18;;;16.50;99.90;;;;;;4997628;28;20098;-87
2022/08/23 01:56:53;;;;;;;17.77;13.18;;;16.50;99.90;;;;;;4999575;28;20465;-85
2022/08/23 01:59:19;;;;;;;15.05;12.95;;;16.50;99.90;;;;;;5017140;28;20040;-86
2022/08/23 02:01:52;;;;;;;14.17;11.80;;;16.50;99.90;;;;;;5005232;28;20479;-86
2022/08/23 02:04:18;;;;;;;13.13;11.55;;;16.50;99.90;;;;;;5015658;28;20323;-87
2022/08/23 02:06:45;;;;;;;14.75;13.25;;;16.50;99.90;;;;;;4998886;28;20044;-85
2022/08/23 02:09:17;;;;;;;16.55;13.30;;;16.50;99.90;;;;;;5026203;28;20067;-86
2022/08/23 02:11:44;;;;;;;17.10;13.85;;;16.40;99.90;;;;;;5006281;28;20049;-86
2022/08/23 02:14:15;;;;;;;15.60;13.55;;;16.40;99.90;;;;;;5039721;28;20036;-87
2022/08/23 02:16:50;;;;;;;17.08;13.60;;;16.40;99.90;;;;;;5037741;28;20029;-86
2022/08/23 02:19:18;;;;;;;18.58;14.93;;;16.40;99.90;;;;;;5048302;28;20037;-86
2022/08/23 02:21:45;;;;;;;16.10;13.85;;;16.30;99.90;;;;;;5033716;28;20052;-86
2022/08/23 02:24:19;;;;;;;16.17;13.95;;;16.30;99.90;;;;;;5015762;28;20052;-84
2022/08/23 02:26:54;;;;;;;16.92;13.82;;;16.30;99.90;;;;;;5011176;28;20029;-86
2022/08/23 02:29:27;;;;;;;16.52;14.30;;;16.30;99.90;;;;;;5015302;28;20021;-86
2022/08/23 02:31:57;;;;;;;18.70;16.80;;;16.20;99.90;;;;;;5003056;28;20123;-86
2022/08/23 02:34:24;;;;;;;17.00;14.15;;;16.20;99.90;;;;;;5032384;28;20123;-85
2022/08/23 02:36:53;;;;;;;18.63;14.75;;;16.20;99.90;;;;;;5050937;28;20048;-86
2022/08/23 02:39:23;;;;;;;15.75;14.15;;;16.20;99.90;;;;;;5016172;28;20092;-85
2022/08/23 02:41:50;;;;;;;16.83;15.10;;;16.20;99.90;;;;;;5008522;28;20418;-85
2022/08/23 02:44:18;;;;;;;16.58;14.70;;;16.10;99.90;;;;;;5040929;28;20036;-87
2022/08/23 02:46:46;;;;;;;17.27;15.48;;;16.10;99.90;;;;;;5033828;28;20024;-86
2022/08/23 02:49:13;;;;;;;18.55;16.65;;;16.10;99.90;;;;;;5017287;28;20048;-87
2022/08/23 02:51:43;;;;;;;16.70;14.95;;;16.10;99.90;;;;;;5032723;28;20072;-86
2022/08/23 02:54:12;;;;;;;16.55;14.73;;;16.10;99.90;;;;;;5025633;28;20044;-86
2022/08/23 02:56:39;;;;;;;16.55;14.95;;;16.10;99.90;;;;;;5022367;28;20060;-88
2022/08/23 02:59:07;;;;;;;17.63;15.95;;;16.10;99.90;;;;;;5003402;28;20493;-87
2022/08/23 03:01:37;;;;;;;18.90;15.95;;;16.00;99.90;;;;;;5021796;28;20060;-87
2022/08/23 03:04:18;;;;;;;18.63;16.67;;;16.00;99.90;;;;;;5037810;28;20848;-86
2022/08/23 03:06:45;;;;;;;18.10;16.30;;;16.00;99.90;;;;;;4990577;28;20514;-87
2022/08/23 03:09:34;;;;;;;20.15;18.02;;;16.00;99.90;;;;;;5009641;28;20065;-86
2022/08/23 03:12:03;;;;;;;19.60;17.52;;;16.00;99.90;;;;;;5008099;28;20507;-86
2022/08/23 03:14:36;;;;;;;21.13;17.17;;;16.00;99.90;;;;;;4995516;28;20052;-86
2022/08/23 03:17:04;;;;;;;18.40;16.38;;;15.90;99.90;;;;;;5005392;28;20052;-87
2022/08/23 03:19:43;;;;;;;19.23;17.40;;;15.90;99.90;;;;;;5005487;28;20556;-87
2022/08/23 03:22:13;;;;;;;16.98;15.27;;;15.90;99.90;;;;;;5039794;28;20119;-86
2022/08/23 03:24:43;;;;;;;22.38;17.27;;;15.90;99.90;;;;;;5018446;28;20048;-86
2022/08/23 03:27:18;;;;;;;19.35;17.13;;;15.90;99.90;;;;;;5010297;28;20036;-86
2022/08/23 03:29:48;;;;;;;18.35;16.45;;;15.80;99.90;;;;;;5025509;28;20032;-87
2022/08/23 03:32:19;;;;;;;17.55;15.77;;;15.80;99.90;;;;;;5010727;28;20052;-85
2022/08/23 03:34:46;;;;;;;18.05;16.10;;;15.90;99.90;;;;;;5031835;28;20040;-86
2022/08/23 03:37:13;;;;;;;19.45;16.60;;;15.80;99.90;;;;;;5007606;28;20064;-86
2022/08/23 03:39:40;;;;;;;20.98;16.13;;;15.80;99.90;;;;;;5027129;28;20044;-86
2022/08/23 03:42:08;;;;;;;18.48;16.35;;;15.80;99.90;;;;;;5010482;28;20492;-86
2022/08/23 03:44:41;;;;;;;19.65;17.73;;;15.80;99.90;;;;;;5024348;28;20052;-86
2022/08/23 03:47:08;;;;;;;18.98;17.23;;;15.80;99.90;;;;;;5018773;28;20137;-86
2022/08/23 03:49:36;;;;;;;20.90;18.92;;;15.80;99.90;;;;;;5017247;28;20051;-85
2022/08/23 03:52:05;;;;;;;19.80;17.80;;;15.70;99.90;;;;;;5018730;28;20047;-86
2022/08/23 03:54:34;;;;;;;19.48;17.58;;;15.80;99.90;;;;;;5017480;28;20040;-86
2022/08/23 03:57:05;;;;;;;18.55;16.75;;;15.80;99.90;;;;;;5027310;28;20029;-86
2022/08/23 03:59:38;;;;;;;19.75;17.73;;;15.80;99.90;;;;;;5034739;28;20060;-87
2022/08/23 04:02:12;;;;;;;17.88;16.20;;;15.70;99.90;;;;;;5013684;28;20045;-85
2022/08/23 04:04:38;;;;;;;20.23;18.33;;;15.70;99.90;;;;;;4996998;28;20045;-86
2022/08/23 04:07:19;;;;;;;20.73;16.58;;;15.70;99.90;;;;;;5050907;28;20478;-86
2022/08/23 04:09:47;;;;;;;17.00;15.20;;;15.60;99.90;;;;;;5045768;28;20056;-86
2022/08/23 04:12:13;;;;;;;16.13;14.60;;;15.70;99.90;;;;;;5010208;28;20053;-86
2022/08/23 04:14:43;;;;;;;16.77;14.98;;;15.60;99.90;;;;;;4999849;28;20053;-86
2022/08/23 04:17:16;;;;;;;19.17;14.85;;;15.60;99.90;;;;;;5017468;28;20038;-86
2022/08/23 04:19:43;;;;;;;16.17;14.57;;;15.60;99.90;;;;;;5020400;28;20064;-86
2022/08/23 04:22:19;;;;;;;15.88;14.40;;;15.50;99.90;;;;;;5019273;28;20029;-86
2022/08/23 04:24:49;;;;;;;14.98;13.57;;;15.50;99.90;;;;;;5031717;28;20032;-86
2022/08/23 04:27:26;;;;;;;15.50;13.90;;;15.50;99.90;;;;;;5003455;28;20064;-86
2022/08/23 04:29:55;;;;;;;15.88;14.25;;;15.50;99.90;;;;;;5026421;28;20055;-86
2022/08/23 04:32:25;;;;;;;15.05;13.63;;;15.40;99.90;;;;;;5015266;28;20025;-87
2022/08/23 04:34:56;;;;;;;17.58;14.82;;;15.40;99.90;;;;;;5010810;28;20132;-87
2022/08/23 04:37:22;;;;;;;19.42;17.30;;;15.40;99.90;;;;;;4984480;28;20017;-87
2022/08/23 04:42:45;;;;;;;18.98;17.38;;;15.40;99.90;;;;;;5009991;28;20579;-86
2022/08/23 04:45:26;;;;;;;21.33;19.27;;;15.40;99.90;;;;;;5000316;28;20103;-87
2022/08/23 04:47:53;;;;;;;20.98;18.92;;;15.50;99.90;;;;;;4992089;28;20140;-87
2022/08/23 04:50:24;;;;;;;21.60;19.35;;;15.50;99.90;;;;;;5024212;28;20045;-86
2022/08/23 04:53:19;;;;;;;22.00;19.73;;;15.50;99.90;;;;;;5025221;28;20052;-87
2022/08/23 04:56:05;;;;;;;20.00;18.10;;;15.50;99.90;;;;;;5022063;28;20041;-85
2022/08/23 04:58:45;;;;;;;20.30;18.35;;;15.50;99.90;;;;;;5008258;28;20618;-87
2022/08/23 05:01:14;;;;;;;21.58;19.38;;;15.50;99.90;;;;;;5002189;28;20082;-87
2022/08/23 05:03:43;;;;;;;21.50;19.30;;;15.50;99.90;;;;;;4975475;28;20502;-86
2022/08/23 05:06:13;;;;;;;21.35;19.40;;;15.50;99.90;;;;;;4994852;28;20511;-86
2022/08/23 05:08:40;;;;;;;22.20;19.90;;;15.50;99.90;;;;;;4991699;28;20056;-86
2022/08/23 05:11:10;;;;;;;20.80;18.90;;;15.50;99.90;;;;;;5002066;28;20051;-86
2022/08/23 05:13:38;;;;;;;20.70;18.58;;;15.60;99.90;;;;;;5003737;28;20131;-86
2022/08/23 05:16:07;;;;;;;20.92;18.80;;;15.60;99.90;;;;;;4972607;28;20045;-87
2022/08/23 05:18:48;;;;;;;22.27;20.15;;;15.60;99.90;;;;;;4997611;28;20033;-87
2022/08/23 05:21:18;;;;;;;21.80;19.90;;;15.70;99.90;;;;;;5014108;28;20626;-87
2022/08/23 05:23:47;;;;;;;21.90;19.90;;;15.80;99.90;;;;;;5034074;28;20036;-87
2022/08/23 05:26:18;;;;;;;21.45;19.38;;;15.90;99.90;;;;;;5025136;28;20048;-87
2022/08/23 05:28:47;;;;;;;21.25;19.25;;;15.90;99.90;;;;;;4985949;28;20040;-86
2022/08/23 05:31:25;;;;;;;20.55;18.75;;;16.10;99.90;;;;;;5004246;28;20036;-85
2022/08/23 05:33:58;;;;;;;18.63;16.63;;;16.20;99.90;;;;;;5038381;28;20122;-86
2022/08/23 05:36:51;;;;;;;18.02;16.40;;;16.40;99.90;;;;;;5033443;28;20404;-86
2022/08/23 05:39:20;;;;;;;17.98;16.27;;;16.50;99.90;;;;;;4997592;28;20639;-86
2022/08/23 05:41:47;;;;;;;19.08;16.83;;;16.60;99.90;;;;;;5002065;28;20049;-86
2022/08/23 05:44:16;;;;;;;18.10;16.23;;;16.70;99.90;;;;;;5005498;28;20705;-87
2022/08/23 05:46:46;;;;;;;17.70;15.60;;;16.80;99.90;;;;;;4998836;28;20048;-86
2022/08/23 05:49:35;;;;;;;16.75;15.05;;;16.90;99.90;;;;;;5007694;28;20056;-86
2022/08/23 05:52:07;;;;;;;16.40;14.88;;;17.20;99.90;;;;;;5007848;28;20054;-86
2022/08/23 05:54:34;;;;;;;14.98;13.57;;;17.30;99.90;;;;;;5003823;28;20045;-85
2022/08/23 05:57:26;;;;;;;15.05;13.65;;;17.50;99.90;;;;;;5022177;28;20036;-85
2022/08/23 05:59:55;;;;;;;14.18;12.25;;;17.70;99.90;;;;;;5008784;28;20032;-85
2022/08/23 06:02:21;;;;;;;12.68;11.43;;;17.90;99.90;;;;;;5019216;28;20491;-85
2022/08/23 06:04:49;;;;;;;13.23;11.77;;;18.20;99.90;;;;;;5016336;28;20154;-85
2022/08/23 06:07:16;;;;;;;12.40;11.18;;;18.40;99.90;;;;;;5002488;28;20044;-86
2022/08/23 06:09:43;;;;;;;13.35;12.07;;;18.70;99.90;;;;;;5021382;28;20087;-84
2022/08/23 06:12:10;;;;;;;13.07;11.52;;;19.00;99.90;;;;;;5003196;28;20044;-86
2022/08/23 06:14:38;;;;;;;11.02;9.93;;;19.30;99.90;;;;;;4999255;28;20091;-86
2022/08/23 06:17:04;;;;;;;11.95;10.00;;;19.40;99.90;;;;;;5008081;28;20063;-86
2022/08/23 06:19:30;;;;;;;13.80;10.23;;;19.60;99.90;;;;;;4983706;28;20044;-86
2022/08/23 06:22:09;;;;;;;11.52;10.32;;;19.80;99.90;;;;;;4985036;28;20044;-85
2022/08/23 06:24:40;;;;;;;11.50;10.02;;;19.80;99.90;;;;;;4989190;28;20055;-86
2022/08/23 06:27:17;;;;;;;11.30;10.07;;;19.70;99.90;;;;;;4986006;28;20047;-85
2022/08/23 06:29:44;;;;;;;11.68;10.43;;;19.80;99.90;;;;;;5038053;28;20076;-86
2022/08/23 06:32:43;;;;;;;11.50;10.30;;;19.80;99.90;;;;;;4972562;28;20118;-87
2022/08/23 06:35:28;;;;;;;12.70;10.27;;;20.00;99.90;;;;;;5008241;28;20033;-87
2022/08/23 06:38:16;;;;;;;10.80;9.32;;;20.20;99.90;;;;;;4993562;28;20044;-86
2022/08/23 06:41:11;;;;;;;12.40;8.60;;;20.50;99.90;;;;;;5031655;28;20037;-87
2022/08/23 06:44:02;;;;;;;10.93;8.05;;;20.70;99.90;;;;;;5024230;28;20087;-87
2022/08/23 06:46:47;;;;;;;10.57;7.65;;;21.00;99.90;;;;;;5014335;28;20567;-87
2022/08/23 06:49:15;;;;;;;8.15;7.22;;;21.40;99.90;;;;;;5024875;28;20097;-86
2022/08/23 06:51:49;;;;;;;11.38;7.15;;;21.50;99.90;;;;;;4999527;28;20040;-86
2022/08/23 06:54:21;;;;;;;8.15;6.85;;;21.80;99.90;;;;;;5008891;28;20055;-85
2022/08/23 06:57:15;;;;;;;7.78;6.40;;;22.00;99.90;;;;;;5021102;28;20401;-91
2022/08/23 06:59:59;;;;;;;7.43;6.40;;;22.10;99.90;;;;;;4994008;28;20511;-86
2022/08/23 07:02:35;;;;;;;9.13;6.13;;;22.00;99.90;;;;;;5006735;28;20123;-86
2022/08/23 07:05:42;;;;;;;9.07;6.93;;;21.90;99.90;;;;;;5019948;28;20043;-87
2022/08/23 07:08:29;;;;;;;10.57;6.95;;;21.80;99.90;;;;;;4983045;28;20144;-88
2022/08/23 07:11:06;;;;;;;8.38;7.50;;;21.80;99.90;;;;;;5008153;28;20049;-87
2022/08/23 07:13:33;;;;;;;10.00;7.32;;;21.80;99.90;;;;;;5001723;28;20075;-87
2022/08/23 07:16:01;;;;;;;8.13;7.20;;;22.10;99.90;;;;;;4990226;28;20038;-87
2022/08/23 07:18:32;;;;;;;9.13;7.18;;;22.60;99.90;;;;;;5020768;28;20867;-88
2022/08/23 07:21:01;;;;;;;10.75;7.18;;;22.70;99.90;;;;;;5007084;28;20381;-88
2022/08/23 07:23:32;;;;;;;8.45;7.18;;;22.80;99.90;;;;;;5039129;28;20075;-88
2022/08/23 07:26:01;;;;;;;10.35;7.55;;;23.10;99.90;;;;;;5005280;28;20100;-87
2022/08/23 07:28:29;;;;;;;9.88;7.13;;;23.60;99.90;;;;;;4992521;28;20040;-87
2022/08/23 07:31:09;;;;;;;8.40;6.93;;;24.00;99.90;;;;;;5017276;28;20056;-87
2022/08/23 07:33:40;;;;;;;10.60;7.10;;;24.20;99.90;;;;;;5035184;28;20068;-87
2022/08/23 07:36:21;;;;;;;11.23;7.88;;;24.40;99.90;;;;;;5014554;28;20068;-87
2022/08/23 07:38:48;;;;;;;8.00;5.97;;;24.40;99.90;;;;;;5021071;28;20032;-86
2022/08/23 07:41:19;;;;;;;8.77;6.25;;;24.40;99.90;;;;;;5023549;28;20040;-86
2022/08/23 07:43:49;;;;;;;7.95;6.25;;;24.40;99.90;;;;;;5019364;28;20135;-86
2022/08/23 07:46:20;;;;;;;8.45;5.47;;;24.50;99.90;;;;;;5021991;28;20044;-86
2022/08/23 07:48:50;;;;;;;7.50;5.95;;;24.70;99.90;;;;;;4987940;28;20117;-88
2022/08/23 07:51:26;;;;;;;7.70;6.70;;;24.90;99.90;;;;;;4994585;28;20056;-87
2022/08/23 07:53:56;;;;;;;10.43;6.47;;;24.90;99.90;;;;;;5012513;28;20048;-87
2022/08/23 07:56:25;;;;;;;9.13;6.63;;;25.10;99.90;;;;;;5033156;28;20051;-87
2022/08/23 07:59:08;;;;;;;9.43;6.70;;;25.20;99.90;;;;;;5002573;28;20617;-88
2022/08/23 08:01:58;;;;;;;10.70;6.53;;;25.50;99.90;;;;;;4994830;28;20045;-88
2022/08/23 08:04:25;;;;;;;10.30;6.88;;;25.90;99.90;;;;;;5007347;28;20392;-88
2022/08/23 08:06:52;;;;;;;9.43;6.18;;;26.30;99.90;;;;;;5023058;28;20504;-86
2022/08/23 08:09:24;;;;;;;8.63;6.40;;;26.70;99.90;;;;;;5004830;28;20145;-86
2022/08/23 08:11:51;;;;;;;7.10;5.65;;;26.80;99.90;;;;;;5000690;28;20048;-87
2022/08/23 08:14:21;;;;;;;8.68;6.30;;;26.60;99.90;;;;;;5006851;28;20040;-87
2022/08/23 08:16:59;;;;;;;9.85;6.72;;;26.50;99.90;;;;;;5007536;28;20112;-88
2022/08/23 08:19:54;;;;;;;9.13;7.18;;;26.50;99.90;;;;;;4996670;28;20049;-87
2022/08/23 08:22:59;;;;;;;9.18;7.78;;;26.80;99.90;;;;;;4956643;28;20623;-87
2022/08/23 08:26:01;;;;;;;9.10;5.75;;;27.20;99.90;;;;;;4923741;28;20050;-87
2022/08/23 08:28:27;;;;;;;9.88;5.82;;;27.70;99.90;;;;;;4971850;28;20540;-86
2022/08/23 08:30:56;;;;;;;8.55;5.55;;;27.70;99.90;;;;;;5041689;28;20029;-86
2022/08/23 08:33:24;;;;;;;8.30;5.68;;;27.90;99.10;;;;;;4995945;28;20048;-86
2022/08/23 08:35:56;;;;;;;8.48;5.85;;;27.70;99.90;;;;;;4992103;28;20563;-84
2022/08/23 08:38:23;;;;;;;8.05;6.30;;;27.80;99.70;;;;;;5002165;28;20048;-86
2022/08/23 08:41:08;;;;;;;8.85;6.28;;;28.00;99.40;;;;;;5017078;28;20040;-86
2022/08/23 08:43:55;;;;;;;9.10;5.28;;;28.30;98.70;;;;;;5047921;28;20359;-87
2022/08/23 08:46:43;;;;;;;12.93;6.50;;;28.40;95.10;;;;;;5001174;28;20044;-86
2022/08/23 08:49:39;;;;;;;7.43;5.22;;;28.10;95.90;;;;;;5037515;28;20044;-85
2022/08/23 08:52:20;;;;;;;6.00;4.90;;;28.50;95.10;;;;;;5022317;28;20051;-85
2022/08/23 08:54:53;;;;;;;7.53;4.97;;;28.80;91.80;;;;;;5011995;28;20035;-86
2022/08/23 08:57:25;;;;;;;8.27;4.70;;;29.30;93.40;;;;;;5003433;28;20044;-85
2022/08/23 09:00:08;;;;;;;5.65;3.92;;;29.60;92.10;;;;;;5030594;28;20364;-85
2022/08/23 09:02:37;;;;;;;5.93;4.43;;;29.70;89.40;;;;;;5006498;28;20522;-86
2022/08/23 09:05:20;;;;;;;7.35;4.97;;;30.20;89.00;;;;;;5019718;28;20035;-86
2022/08/23 09:08:13;;;;;;;8.93;4.90;;;30.40;81.80;;;;;;5023820;28;20096;-85
2022/08/23 09:10:59;;;;;;;8.13;3.90;;;30.40;77.00;;;;;;5024121;28;20044;-86
2022/08/23 09:13:56;;;;;;;6.30;4.15;;;30.90;80.30;;;;;;5024197;28;20047;-86
2022/08/23 09:16:51;;;;;;;7.28;4.15;;;30.50;72.60;;;;;;5020281;28;20046;-84
2022/08/23 09:19:20;;;;;;;10.45;7.75;;;30.40;75.90;;;;;;5021867;28;20044;-85
2022/08/23 09:21:57;;;;;;;5.47;3.55;;;30.70;75.50;;;;;;5013542;28;20168;-86
2022/08/23 09:24:25;;;;;;;5.40;3.58;;;30.60;74.70;;;;;;5011066;28;20040;-86
2022/08/23 09:27:01;;;;;;;6.85;3.97;;;30.60;74.90;;;;;;5003523;28;20083;-86
2022/08/23 09:29:33;;;;;;;7.93;4.20;;;30.60;73.70;;;;;;5001457;28;20052;-86
2022/08/23 09:32:02;;;;;;;7.68;3.38;;;31.10;74.50;;;;;;4999315;28;20082;-84
2022/08/23 09:34:42;;;;;;;7.15;3.63;;;31.60;72.10;;;;;;5016244;28;20054;-85
2022/08/23 09:37:23;;;;;;;7.35;4.63;;;32.40;69.90;;;;;;5019203;28;20062;-85
2022/08/23 09:39:54;;;;;;;6.63;4.28;;;32.10;66.50;;;;;;5011064;28;20048;-86
2022/08/23 09:42:37;;;;;;;7.95;4.00;;;31.40;66.20;;;;;;5009700;28;20556;-85
2022/08/23 09:45:26;;;;;;;5.38;3.50;;;31.40;65.40;;;;;;5003785;28;20051;-86
2022/08/23 09:47:52;;;;;;;8.43;4.22;;;31.70;65.80;;;;;;5033779;28;20051;-86
2022/08/23 09:50:38;;;;;;;8.85;3.78;;;31.40;64.00;;;;;;4989122;28;20041;-86
2022/08/23 09:53:11;;;;;;;5.82;3.80;;;31.60;63.00;;;;;;5004361;28;20048;-85
2022/08/23 09:55:49;;;;;;;6.00;3.80;;;31.30;63.20;;;;;;5032050;28;20044;-88
2022/08/23 09:58:40;;;;;;;6.70;3.65;;;31.50;66.00;;;;;;5004341;28;20048;-85
2022/08/23 10:01:29;;;;;;;7.32;3.70;;;32.00;65.70;;;;;;4996656;28;20404;-85
2022/08/23 10:04:15;;;;;;;8.35;3.95;;;32.40;64.40;;;;;;5019123;28;20053;-85
2022/08/23 10:06:45;;;;;;;7.00;4.30;;;32.80;62.20;;;;;;4998958;28;20049;-86
2022/08/23 10:09:32;;;;;;;6.32;3.90;;;33.10;60.40;;;;;;4998473;28;20120;-85
2022/08/23 10:12:05;;;;;;;8.50;4.40;;;33.40;58.10;;;;;;5014007;28;20105;-86
2022/08/23 10:14:32;;;;;;;5.22;2.97;;;33.30;59.20;;;;;;5016212;28;20133;-86
2022/08/23 10:17:33;;;;;;;8.77;4.05;;;33.70;57.80;;;;;;4964714;28;20539;-86
2022/08/23 10:20:13;;;;;;;11.57;3.95;;;33.50;53.60;;;;;;4999887;28;20068;-86
2022/08/23 10:22:56;;;;;;;6.15;3.42;;;33.50;55.40;;;;;;5006874;28;20508;-86
2022/08/23 10:25:43;;;;;;;9.50;3.50;;;33.60;53.40;;;;;;5000312;28;20017;-87
2022/08/23 10:32:21;;;;;;;8.23;3.03;;;34.20;52.80;;;;;;5015090;28;20067;-86
2022/08/23 10:35:05;;;;;;;5.13;2.17;;;34.40;52.50;;;;;;5015478;28;20045;-86
2022/08/23 10:38:13;;;;;;;7.07;2.90;;;34.20;52.20;;;;;;4997713;28;20040;-86
2022/08/23 10:41:02;;;;;;;6.95;2.67;;;33.90;50.10;;;;;;5001056;28;20071;-86
2022/08/23 10:43:37;;;;;;;6.13;3.28;;;34.10;52.60;;;;;;5017355;28;20106;-86
2022/08/23 10:46:07;;;;;;;5.45;3.55;;;34.00;53.70;;;;;;5024265;28;20048;-87
2022/08/23 10:48:58;;;;;;;8.07;4.10;;;34.00;53.20;;;;;;5015166;28;20238;-86
2022/08/23 10:51:32;;;;;;;5.55;3.00;;;34.20;52.70;;;;;;5005954;28;20060;-84
2022/08/23 10:54:08;;;;;;;8.15;5.65;;;34.20;54.80;;;;;;5037858;28;20291;-86
2022/08/23 10:56:37;;;;;;;8.13;3.35;;;34.40;54.20;;;;;;5014582;28;20102;-86
2022/08/23 10:59:19;;;;;;;7.17;3.37;;;34.60;55.30;;;;;;4992748;28;20132;-86
2022/08/23 11:02:18;;;;;;;8.35;2.90;;;34.60;53.50;;;;;;5030939;28;20306;-86
2022/08/23 11:05:16;;;;;;;5.35;2.88;;;35.10;53.20;;;;;;5023299;28;20045;-86
2022/08/23 11:07:54;;;;;;;6.25;2.35;;;35.30;52.10;;;;;;4996851;28;20578;-86
2022/08/23 11:10:35;;;;;;;6.70;3.25;;;35.60;48.40;;;;;;5025894;28;20045;-87
2022/08/23 11:13:17;;;;;;;5.90;2.45;;;35.50;49.30;;;;;;5004587;28;20447;-87
2022/08/23 11:16:06;;;;;;;5.75;2.42;;;35.70;46.20;;;;;;5035929;28;20055;-87
2022/08/23 11:18:41;;;;;;;8.50;3.42;;;35.70;46.40;;;;;;5005774;28;20036;-85
2022/08/23 11:21:32;;;;;;;7.43;2.90;;;35.80;46.70;;;;;;5012181;28;20123;-87
2022/08/23 11:24:02;;;;;;;5.07;2.08;;;35.90;47.30;;;;;;5016274;28;20052;-88
2022/08/23 11:26:36;;;;;;;6.20;2.30;;;35.30;46.90;;;;;;5015601;28;20055;-87
2022/08/23 11:29:06;;;;;;;7.40;3.95;;;35.50;46.20;;;;;;5019778;28;20048;-88
2022/08/23 11:31:46;;;;;;;5.53;2.70;;;35.80;47.80;;;;;;5018725;28;20076;-86
2022/08/23 11:34:24;;;;;;;8.07;2.33;;;35.20;46.10;;;;;;5004847;28;20038;-87
2022/08/23 11:37:17;;;;;;;5.32;2.17;;;35.20;46.00;;;;;;5006205;28;20048;-87
2022/08/23 11:39:57;;;;;;;8.43;2.97;;;34.90;45.60;;;;;;5025142;28;20416;-87
2022/08/23 11:42:36;;;;;;;4.70;2.30;;;35.10;45.50;;;;;;5018778;28;20056;-87
2022/08/23 11:45:22;;;;;;;8.63;4.57;;;35.40;46.60;;;;;;5018057;28;20079;-87
2022/08/23 11:48:13;;;;;;;6.10;2.65;;;35.70;47.60;;;;;;5021264;28;20487;-86
2022/08/23 11:50:46;;;;;;;7.93;3.92;;;35.80;46.80;;;;;;5036334;28;20045;-87
2022/08/23 11:53:20;;;;;;;7.03;2.80;;;35.50;45.70;;;;;;5019945;28;20455;-88
2022/08/23 11:56:11;;;;;;;15.88;9.82;;;35.70;45.30;;;;;;5012667;28;20091;-87
2022/08/23 11:59:01;;;;;;;6.35;2.35;;;35.90;45.00;;;;;;4999787;28;20047;-87
2022/08/23 12:01:37;;;;;;;5.35;2.33;;;35.70;45.90;;;;;;5027354;28;20579;-86
2022/08/23 12:04:26;;;;;;;7.55;4.13;;;35.50;44.20;;;;;;5027902;28;20440;-87
2022/08/23 12:07:00;;;;;;;7.57;2.50;;;35.10;44.40;;;;;;5022072;28;20059;-87
2022/08/23 12:09:26;;;;;;;5.38;2.08;;;35.50;45.50;;;;;;4991135;28;20052;-86
2022/08/23 12:11:56;;;;;;;7.55;4.22;;;35.50;43.90;;;;;;4985099;28;20108;-87
2022/08/23 12:14:41;;;;;;;5.20;2.45;;;35.40;44.80;;;;;;4998075;28;21550;-87
2022/08/23 12:17:17;;;;;;;4.38;2.45;;;35.40;45.50;;;;;;4986746;28;20075;-86
2022/08/23 12:20:10;;;;;;;8.48;4.32;;;35.50;44.30;;;;;;5002542;28;20052;-87
2022/08/23 12:22:58;;;;;;;6.13;2.83;;;35.70;45.00;;;;;;5001782;28;20044;-87
2022/08/23 12:25:26;;;;;;;9.38;2.22;;;35.80;45.60;;;;;;5009129;28;20110;-87
2022/08/23 12:28:23;;;;;;;5.20;2.25;;;36.10;45.00;;;;;;4985758;28;20128;-87
2022/08/23 12:31:02;;;;;;;6.65;2.28;;;36.40;45.10;;;;;;5008713;28;20044;-86
2022/08/23 12:33:45;;;;;;;7.25;2.70;;;36.60;43.20;;;;;;4994743;28;20063;-87
2022/08/23 12:36:17;;;;;;;5.68;2.28;;;36.90;44.90;;;;;;5020330;28;20044;-87
2022/08/23 12:38:49;;;;;;;4.57;2.25;;;36.50;43.00;;;;;;5010468;28;20180;-87
2022/08/23 12:41:28;;;;;;;4.47;2.00;;;36.70;42.30;;;;;;4997276;28;20525;-87
2022/08/23 12:44:06;;;;;;;5.90;2.60;;;36.20;43.90;;;;;;4985450;28;20046;-87
2022/08/23 12:46:42;;;;;;;6.05;2.38;;;36.50;43.70;;;;;;4983513;28;20052;-87
2022/08/23 12:49:21;;;;;;;4.10;2.35;;;36.70;43.40;;;;;;4999596;28;20037;-87
2022/08/23 12:51:49;;;;;;;5.93;2.17;;;36.80;42.90;;;;;;4995885;28;20114;-87
2022/08/23 12:54:19;;;;;;;7.30;2.78;;;36.00;43.10;;;;;;4982500;28;20079;-86
2022/08/23 12:56:52;;;;;;;10.68;3.05;;;35.50;42.70;;;;;;4987216;28;20559;-86
2022/08/23 12:59:46;;;;;;;5.43;2.35;;;34.60;43.10;;;;;;4984424;28;20045;-87
2022/08/23 13:02:30;;;;;;;6.07;2.63;;;34.30;45.10;;;;;;4985828;28;20100;-86
2022/08/23 13:05:08;;;;;;;5.38;2.40;;;34.10;45.70;;;;;;5013985;28;20045;-87
2022/08/23 13:07:36;;;;;;;6.22;2.25;;;33.60;46.90;;;;;;5010093;28;20165;-87
2022/08/23 13:10:05;;;;;;;3.75;2.03;;;33.20;46.20;;;;;;5014956;28;20505;-86
2022/08/23 13:12:32;;;;;;;7.45;2.63;;;32.90;47.70;;;;;;4986468;28;20040;-85
2022/08/23 13:15:00;;;;;;;6.03;2.97;;;32.50;47.70;;;;;;4989914;28;20374;-87
2022/08/23 13:17:27;;;;;;;6.03;2.25;;;32.40;48.90;;;;;;4980442;28;20044;-87
2022/08/23 13:20:19;;;;;;;5.22;2.53;;;32.10;48.80;;;;;;4999209;28;20041;-87
2022/08/23 13:23:14;;;;;;;3.95;2.00;;;32.10;50.50;;;;;;5024726;28;20095;-86
2022/08/23 13:25:42;;;;;;;4.88;1.70;;;32.00;49.40;;;;;;4982811;28;20076;-88
2022/08/23 13:28:24;;;;;;;4.35;2.50;;;32.10;50.20;;;;;;5004722;28;20044;-87
2022/08/23 13:31:17;;;;;;;7.85;2.30;;;32.30;50.50;;;;;;5016765;28;20037;-89
2022/08/23 13:33:52;;;;;;;8.73;2.63;;;32.30;50.70;;;;;;4994627;28;20132;-87